Acuna, Argentina
Current Conditions -  °F | °C
As of 7:00 PM on Wednesday 28 Jan 2015 (Local Time) from SARL Reporting Station
Thunderstorm Thunderstorm  
Wind Chill: 73°   Ceiling: 4000
Heat Index: 73°   Visibility: 5mi
Dew Point: 70°   Wind: 15mph
Humidity: 88%   Direction: 180°S
Pressure: 29.71"   Gusts: NA
Location:  29.92°S, 57.97°W
Report Text: SARL 282200Z 18013KT 8000 TSRA SCT012OVC040 FEW045CB 23/21 Q1006
Loading
Personal Weather Stations






























Interactive Weather Map New forecast layout! Learn more

10-Day Weather Forecast

Advertisements
Track Severe Weather on mobile